createdAt,value
2023-02-13T00:00:15.568Z,1.30
2023-02-13T00:01:17.716Z,1.40
2023-02-13T00:02:20.560Z,1.30
2023-02-13T00:03:22.532Z,1.30
2023-02-13T00:04:25.407Z,1.30
2023-02-13T00:05:27.349Z,1.20
2023-02-13T00:06:30.256Z,1.20
2023-02-13T00:07:32.149Z,1.20
2023-02-13T00:08:36.666Z,1.20
2023-02-13T00:09:38.741Z,1.20
2023-02-13T00:10:41.614Z,1.10
2023-02-13T00:11:43.537Z,1.10
2023-02-13T00:12:46.524Z,1.10
2023-02-13T00:13:48.499Z,1.10
2023-02-13T00:14:51.367Z,1.10
2023-02-13T00:15:56.848Z,1.10
2023-02-13T00:16:59.824Z,1.00
2023-02-13T00:18:01.973Z,1.00
2023-02-13T00:19:04.937Z,1.00
2023-02-13T00:20:07.552Z,1.00
2023-02-13T00:21:11.677Z,1.00
2023-02-13T00:22:13.707Z,1.10
2023-02-13T00:23:16.647Z,1.10
2023-02-13T00:24:20.003Z,1.10
2023-02-13T00:25:22.855Z,1.10
2023-02-13T00:26:24.835Z,1.10
2023-02-13T00:27:27.811Z,1.10
2023-02-13T00:28:29.732Z,1.10
2023-02-13T00:29:32.610Z,1.10
2023-02-13T00:30:34.488Z,1.10
2023-02-13T00:31:37.447Z,1.10
2023-02-13T00:32:39.437Z,1.10
2023-02-13T00:33:42.356Z,1.00
2023-02-13T00:34:45.732Z,1.00
2023-02-13T00:35:48.626Z,1.00
2023-02-13T00:36:50.632Z,1.00
2023-02-13T00:37:53.494Z,1.00
2023-02-13T00:38:59.658Z,1.00
2023-02-13T00:40:03.878Z,1.00
2023-02-13T00:41:05.849Z,1.10
2023-02-13T00:42:08.983Z,1.10
2023-02-13T00:43:10.892Z,1.00
2023-02-13T00:44:13.839Z,1.00
2023-02-13T00:45:15.938Z,1.00
2023-02-13T00:46:19.493Z,0.90
2023-02-13T00:47:21.473Z,0.90
2023-02-13T00:48:24.366Z,0.90
2023-02-13T00:49:26.248Z,0.90
2023-02-13T00:50:29.261Z,0.90
2023-02-13T00:51:31.404Z,0.90
2023-02-13T00:52:34.435Z,0.90
2023-02-13T00:53:36.753Z,0.90
2023-02-13T00:54:39.644Z,0.90
2023-02-13T00:55:42.970Z,0.90
2023-02-13T00:56:46.290Z,0.90
2023-02-13T00:57:48.769Z,0.90
2023-02-13T00:58:51.644Z,0.90
2023-02-13T00:59:53.597Z,0.90
2023-02-13T01:00:57.138Z,0.90
2023-02-13T01:01:59.775Z,0.90
2023-02-13T01:03:02.698Z,0.90
2023-02-13T01:04:04.644Z,0.90
2023-02-13T01:05:07.945Z,0.90
2023-02-13T01:06:09.885Z,0.90
2023-02-13T01:07:13.092Z,0.90
2023-02-13T01:08:19.156Z,0.90
2023-02-13T01:09:23.106Z,0.90
2023-02-13T01:10:25.643Z,0.90
2023-02-13T01:11:29.985Z,1.00
2023-02-13T01:12:31.929Z,0.90
2023-02-13T01:13:35.143Z,1.00
2023-02-13T01:14:37.241Z,1.00
2023-02-13T01:15:40.636Z,1.00
2023-02-13T01:16:43.527Z,1.00
2023-02-13T01:17:45.528Z,1.00
2023-02-13T01:18:48.483Z,1.00
2023-02-13T01:19:50.493Z,1.00
2023-02-13T01:20:57.863Z,1.10
2023-02-13T01:22:00.331Z,1.10
2023-02-13T01:23:03.224Z,1.10
2023-02-13T01:24:05.732Z,1.10
2023-02-13T01:25:08.871Z,1.10
2023-02-13T01:26:12.524Z,1.10
2023-02-13T01:27:18.069Z,1.10
2023-02-13T01:28:20.075Z,1.20
2023-02-13T01:29:22.933Z,1.20
2023-02-13T01:30:24.923Z,1.20
2023-02-13T01:31:28.357Z,1.20
2023-02-13T01:32:30.364Z,1.20
2023-02-13T01:33:33.279Z,1.20
2023-02-13T01:34:35.296Z,1.20
2023-02-13T01:35:39.762Z,1.20
2023-02-13T01:36:41.645Z,1.20
2023-02-13T01:37:44.492Z,1.20
2023-02-13T01:38:46.436Z,1.20
2023-02-13T01:39:50.711Z,1.20
2023-02-13T01:40:53.640Z,1.20
2023-02-13T01:41:56.568Z,1.20
2023-02-13T01:42:59.850Z,1.20
2023-02-13T01:44:03.122Z,1.20
2023-02-13T01:45:05.893Z,1.20
2023-02-13T01:46:08.876Z,1.30
2023-02-13T01:47:11.819Z,1.20
2023-02-13T01:48:17.115Z,1.20
2023-02-13T01:49:20.818Z,1.20
2023-02-13T01:50:25.969Z,1.20
2023-02-13T01:51:30.542Z,1.20
2023-02-13T01:52:34.294Z,1.30
2023-02-13T01:53:39.348Z,1.30
2023-02-13T01:54:43.719Z,1.20
2023-02-13T01:55:48.964Z,1.20
2023-02-13T01:56:54.264Z,1.20
2023-02-13T01:57:58.584Z,1.20
2023-02-13T01:59:03.984Z,1.20
2023-02-13T02:00:07.502Z,1.20
2023-02-13T02:01:20.834Z,1.20
2023-02-13T02:02:23.642Z,1.20
2023-02-13T02:03:29.098Z,1.20
2023-02-13T02:04:36.044Z,1.10
2023-02-13T02:05:44.499Z,1.10
2023-02-13T02:06:49.369Z,1.10
2023-02-13T02:08:00.069Z,1.00
2023-02-13T02:09:04.790Z,1.00
2023-02-13T02:10:08.404Z,1.00
2023-02-13T02:11:15.953Z,1.00
2023-02-13T02:12:20.536Z,1.00
2023-02-13T02:13:24.457Z,1.00
2023-02-13T02:14:28.233Z,1.00
2023-02-13T02:15:32.779Z,1.00
2023-02-13T02:16:34.666Z,1.00
2023-02-13T02:17:39.706Z,0.90
2023-02-13T02:18:41.730Z,0.90
2023-02-13T02:19:47.665Z,0.90
2023-02-13T02:21:03.260Z,0.80
2023-02-13T02:22:25.867Z,0.80
2023-02-13T02:23:46.524Z,0.80
2023-02-13T02:25:10.183Z,0.90
2023-02-13T02:26:22.548Z,0.90
2023-02-13T02:27:38.282Z,0.90
2023-02-13T02:28:55.218Z,0.80
2023-02-13T02:30:12.524Z,0.80
2023-02-13T02:31:40.998Z,0.70
2023-02-13T02:32:51.189Z,0.80
2023-02-13T02:34:01.286Z,0.80
2023-02-13T02:35:13.121Z,0.80
2023-02-13T02:36:22.707Z,0.80
2023-02-13T02:37:35.737Z,0.80
2023-02-13T02:38:42.018Z,0.90
2023-02-13T02:39:48.285Z,0.90
2023-02-13T02:40:57.204Z,0.90
2023-02-13T02:42:08.106Z,0.90
2023-02-13T02:43:14.348Z,1.00
2023-02-13T02:44:31.904Z,1.00
2023-02-13T02:45:37.916Z,1.00
2023-02-13T02:47:08.768Z,1.00
2023-02-13T02:48:32.534Z,1.00
2023-02-13T02:49:55.613Z,1.10
2023-02-13T02:51:00.037Z,1.10
2023-02-13T02:52:07.196Z,1.10
2023-02-13T02:53:18.022Z,1.10
2023-02-13T02:54:52.655Z,1.10
2023-02-13T02:55:56.727Z,1.10
2023-02-13T02:57:03.631Z,1.10
2023-02-13T02:58:27.577Z,1.10
2023-02-13T02:59:51.709Z,1.10
2023-02-13T03:01:13.990Z,1.00
2023-02-13T03:02:36.178Z,1.00
2023-02-13T03:03:57.280Z,1.00
2023-02-13T03:05:19.446Z,1.00
2023-02-13T03:06:25.352Z,1.00
2023-02-13T03:07:27.583Z,1.00
2023-02-13T03:08:44.639Z,1.00
2023-02-13T03:10:06.595Z,1.00
2023-02-13T03:11:27.647Z,1.00
2023-02-13T03:12:50.151Z,1.00
2023-02-13T03:13:54.350Z,0.90
2023-02-13T03:14:57.250Z,0.90
2023-02-13T03:16:19.189Z,0.90
2023-02-13T03:17:40.987Z,0.80
2023-02-13T03:19:03.045Z,0.80
2023-02-13T03:20:29.268Z,0.90
2023-02-13T03:21:53.792Z,0.90
2023-02-13T03:23:01.235Z,0.90
2023-02-13T03:24:07.382Z,0.90
2023-02-13T03:25:13.126Z,0.90
2023-02-13T03:26:45.471Z,0.90
2023-02-13T03:28:09.257Z,0.90
2023-02-13T03:29:32.955Z,0.90
2023-02-13T03:30:40.392Z,1.00
2023-02-13T03:31:47.270Z,1.00
2023-02-13T03:32:57.755Z,0.90
2023-02-13T03:34:02.074Z,0.90
2023-02-13T03:35:27.044Z,0.80
2023-02-13T03:36:54.248Z,0.80
2023-02-13T03:37:59.122Z,0.70
2023-02-13T03:39:07.277Z,0.60
2023-02-13T03:40:13.440Z,0.60
2023-02-13T03:41:18.344Z,0.60
2023-02-13T03:42:24.445Z,0.60
2023-02-13T03:43:27.207Z,0.60
2023-02-13T03:44:31.787Z,0.50
2023-02-13T03:45:55.469Z,0.50
2023-02-13T03:47:00.275Z,0.50
2023-02-13T03:48:09.989Z,0.50
2023-02-13T03:49:39.964Z,0.50
2023-02-13T03:50:43.455Z,0.50
2023-02-13T03:51:55.470Z,0.50
2023-02-13T03:52:59.853Z,0.50
2023-02-13T03:54:04.907Z,0.50
2023-02-13T03:55:26.541Z,0.50
2023-02-13T03:56:47.908Z,0.40
2023-02-13T03:58:09.102Z,0.40
2023-02-13T03:59:18.079Z,0.40
2023-02-13T04:00:20.966Z,0.40
2023-02-13T04:01:26.429Z,0.40
2023-02-13T04:02:30.972Z,0.40
2023-02-13T04:03:37.923Z,0.40
2023-02-13T04:04:43.803Z,0.40
2023-02-13T04:05:48.752Z,0.40
2023-02-13T04:06:52.512Z,0.40
2023-02-13T04:07:55.402Z,0.40
2023-02-13T04:08:57.478Z,0.50
2023-02-13T04:10:02.728Z,0.50
2023-02-13T04:11:08.285Z,0.50
2023-02-13T04:12:15.452Z,0.50
2023-02-13T04:13:20.190Z,0.50
2023-02-13T04:14:25.846Z,0.50
2023-02-13T04:15:29.478Z,0.50
2023-02-13T04:16:34.985Z,0.50
2023-02-13T04:17:38.864Z,0.50
2023-02-13T04:18:43.940Z,0.50
2023-02-13T04:19:45.929Z,0.50
2023-02-13T04:20:48.954Z,0.60
2023-02-13T04:21:55.887Z,0.60
2023-02-13T04:22:58.836Z,0.60
2023-02-13T04:24:00.718Z,0.60
2023-02-13T04:25:03.652Z,0.50
2023-02-13T04:26:07.814Z,0.50
2023-02-13T04:27:11.555Z,0.50
2023-02-13T04:28:13.503Z,0.50
2023-02-13T04:29:16.422Z,0.60
2023-02-13T04:30:18.605Z,0.60
2023-02-13T04:31:21.708Z,0.60
2023-02-13T04:32:23.693Z,0.70
2023-02-13T04:33:26.546Z,0.70
2023-02-13T04:34:29.890Z,0.70
2023-02-13T04:35:32.854Z,0.70
2023-02-13T04:36:34.797Z,0.70
2023-02-13T04:37:37.709Z,0.70
2023-02-13T04:38:39.644Z,0.70
2023-02-13T04:39:42.540Z,0.70
2023-02-13T04:40:44.466Z,0.70
2023-02-13T04:41:47.301Z,0.70
2023-02-13T04:42:49.297Z,0.70
2023-02-13T04:43:52.876Z,0.70
2023-02-13T04:44:54.775Z,0.70
2023-02-13T04:45:57.688Z,0.70
2023-02-13T04:46:59.737Z,0.70
2023-02-13T04:48:02.587Z,0.70
2023-02-13T04:49:04.752Z,0.60
2023-02-13T04:50:09.531Z,0.60
2023-02-13T04:51:11.421Z,0.60
2023-02-13T04:52:15.267Z,0.60
2023-02-13T04:53:17.156Z,0.60
2023-02-13T04:54:19.996Z,0.70
2023-02-13T04:55:22.136Z,0.70
2023-02-13T04:56:24.990Z,0.70
2023-02-13T04:57:26.929Z,0.60
2023-02-13T04:58:29.867Z,0.60
2023-02-13T04:59:31.757Z,0.60
2023-02-13T05:00:34.610Z,0.50
2023-02-13T05:01:36.551Z,0.50
2023-02-13T05:02:39.731Z,0.50
2023-02-13T05:03:42.821Z,0.40
2023-02-13T05:04:44.779Z,0.40
2023-02-13T05:05:49.107Z,0.40
2023-02-13T05:06:51.195Z,0.30
2023-02-13T05:07:54.089Z,0.30
2023-02-13T05:08:56.004Z,0.30
2023-02-13T05:09:58.944Z,0.30
2023-02-13T05:11:00.864Z,0.20
2023-02-13T05:12:03.753Z,0.20
2023-02-13T05:13:06.108Z,0.10
2023-02-13T05:14:09.281Z,0.10
2023-02-13T05:15:11.179Z,0.00
2023-02-13T05:16:14.051Z,0.00
2023-02-13T05:17:15.952Z,0.00
2023-02-13T05:18:18.863Z,-0.10
2023-02-13T05:19:21.694Z,-0.10
2023-02-13T05:20:23.644Z,-0.10
2023-02-13T05:21:45.891Z,-0.10
2023-02-13T05:23:07.128Z,-0.10
2023-02-13T05:24:10.087Z,-0.10
2023-02-13T05:25:11.993Z,-0.20
2023-02-13T05:26:14.841Z,-0.20
2023-02-13T05:27:16.765Z,-0.20
2023-02-13T05:28:37.310Z,-0.10
2023-02-13T05:29:40.271Z,-0.10
2023-02-13T05:30:42.181Z,-0.10
2023-02-13T05:31:45.399Z,-0.10
2023-02-13T05:32:47.405Z,-0.10
2023-02-13T05:33:50.313Z,-0.10
2023-02-13T05:34:53.251Z,-0.10
2023-02-13T05:35:55.153Z,-0.10
2023-02-13T05:36:59.428Z,-0.10
2023-02-13T05:38:01.510Z,-0.10
2023-02-13T05:39:04.828Z,-0.10
2023-02-13T05:40:10.131Z,-0.10
2023-02-13T05:41:13.546Z,-0.10
2023-02-13T05:42:16.679Z,-0.10
2023-02-13T05:43:19.647Z,0.00
2023-02-13T05:44:22.697Z,0.00
2023-02-13T05:45:24.737Z,0.00
2023-02-13T05:46:27.859Z,0.00
2023-02-13T05:47:29.940Z,0.00
2023-02-13T05:48:33.282Z,0.00
2023-02-13T05:49:36.345Z,0.00
2023-02-13T05:50:38.473Z,0.00
2023-02-13T05:51:42.085Z,0.00
2023-02-13T05:52:46.319Z,0.10
2023-02-13T05:53:48.198Z,0.10
2023-02-13T05:54:51.138Z,0.10
2023-02-13T05:55:53.372Z,0.10
2023-02-13T05:56:56.401Z,0.10
2023-02-13T05:57:58.476Z,0.10
2023-02-13T05:59:01.589Z,0.20
2023-02-13T06:00:03.645Z,0.10
2023-02-13T06:01:08.692Z,0.10
2023-02-13T06:02:10.830Z,0.10
2023-02-13T06:03:13.778Z,0.10
2023-02-13T06:04:15.884Z,0.10
2023-02-13T06:05:18.978Z,0.10
2023-02-13T06:06:21.426Z,0.10
2023-02-13T06:07:24.287Z,0.00
2023-02-13T06:08:27.675Z,0.00
2023-02-13T06:09:30.638Z,0.00
2023-02-13T06:10:32.612Z,0.00
2023-02-13T06:11:35.542Z,-0.10
2023-02-13T06:12:38.085Z,-0.10
2023-02-13T06:13:41.117Z,-0.10
2023-02-13T06:14:42.994Z,-0.10
2023-02-13T06:15:46.096Z,-0.20
2023-02-13T06:16:48.992Z,-0.20
2023-02-13T06:17:50.945Z,-0.20
2023-02-13T06:18:54.297Z,-0.20
2023-02-13T06:19:56.294Z,-0.20
2023-02-13T06:20:59.720Z,-0.20
2023-02-13T06:22:01.750Z,-0.20
2023-02-13T06:23:05.098Z,-0.20
2023-02-13T06:24:09.741Z,-0.20
2023-02-13T06:25:13.393Z,-0.20
2023-02-13T06:26:16.265Z,-0.30
2023-02-13T06:27:18.176Z,-0.30
2023-02-13T06:28:21.116Z,-0.30
2023-02-13T06:29:24.068Z,-0.30
2023-02-13T06:30:26.039Z,-0.30
2023-02-13T06:31:29.089Z,-0.30
2023-02-13T06:32:31.150Z,-0.30
2023-02-13T06:33:34.002Z,-0.30
2023-02-13T06:34:36.039Z,-0.30
2023-02-13T06:35:38.992Z,-0.30
2023-02-13T06:36:42.589Z,-0.30
2023-02-13T06:37:45.824Z,-0.30
2023-02-13T06:38:48.657Z,-0.20
2023-02-13T06:39:51.890Z,-0.20
2023-02-13T06:40:59.937Z,-0.20
2023-02-13T06:42:02.022Z,-0.20
2023-02-13T06:43:05.017Z,-0.10
2023-02-13T06:44:08.160Z,-0.10
2023-02-13T06:45:10.157Z,-0.10
2023-02-13T06:46:13.197Z,-0.10
2023-02-13T06:47:15.115Z,-0.10
2023-02-13T06:48:17.943Z,-0.10
2023-02-13T06:49:20.793Z,0.00
2023-02-13T06:50:22.676Z,0.00
2023-02-13T06:51:25.553Z,0.00
2023-02-13T06:52:27.512Z,0.00
2023-02-13T06:53:30.415Z,0.10
2023-02-13T06:54:46.380Z,0.10
2023-02-13T06:55:51.927Z,0.10
2023-02-13T06:56:53.864Z,0.10
2023-02-13T06:57:56.713Z,0.10
2023-02-13T06:58:59.610Z,0.10
2023-02-13T07:00:05.690Z,0.20
2023-02-13T07:01:08.672Z,0.20
2023-02-13T07:02:10.837Z,0.20
2023-02-13T07:03:14.175Z,0.20
2023-02-13T07:04:17.011Z,0.20
2023-02-13T07:05:19.025Z,0.20
2023-02-13T07:06:22.235Z,0.20
2023-02-13T07:07:24.366Z,0.20
2023-02-13T07:08:27.327Z,0.20
2023-02-13T07:09:30.601Z,0.30
2023-02-13T07:10:33.452Z,0.30
2023-02-13T07:11:38.975Z,0.30
2023-02-13T07:12:41.998Z,0.30
2023-02-13T07:13:43.914Z,0.40
2023-02-13T07:14:46.842Z,0.40
2023-02-13T07:15:49.740Z,0.40
2023-02-13T07:16:52.580Z,0.50
2023-02-13T07:17:58.003Z,0.50
2023-02-13T07:19:00.881Z,0.60
2023-02-13T07:20:04.437Z,0.60
2023-02-13T07:21:07.344Z,0.70
2023-02-13T07:22:09.266Z,0.80
2023-02-13T07:23:12.156Z,0.80
2023-02-13T07:24:15.018Z,0.80
2023-02-13T07:25:18.048Z,0.90
2023-02-13T07:26:19.981Z,0.90
2023-02-13T07:27:24.270Z,1.00
2023-02-13T07:28:27.197Z,1.00
2023-02-13T07:29:29.117Z,1.10
2023-02-13T07:30:32.428Z,1.10
2023-02-13T07:31:34.770Z,1.20
2023-02-13T07:32:37.734Z,1.20
2023-02-13T07:33:40.600Z,1.30
2023-02-13T07:34:55.842Z,1.40
2023-02-13T07:36:04.012Z,1.50
2023-02-13T07:37:05.904Z,1.50
2023-02-13T07:38:11.278Z,1.60
2023-02-13T07:39:14.127Z,1.70
2023-02-13T07:40:16.963Z,1.80
2023-02-13T07:41:20.024Z,1.80
2023-02-13T07:42:24.320Z,1.80
2023-02-13T07:43:26.339Z,1.90
2023-02-13T07:44:29.306Z,2.00
2023-02-13T07:45:32.164Z,2.00
2023-02-13T07:46:34.084Z,2.10
2023-02-13T07:47:37.010Z,2.10
2023-02-13T07:48:40.019Z,2.20
2023-02-13T07:49:41.993Z,2.20
2023-02-13T07:50:44.812Z,2.30
2023-02-13T07:51:47.673Z,2.30
2023-02-13T07:52:53.153Z,2.40
2023-02-13T07:53:56.687Z,2.40
2023-02-13T07:55:00.504Z,2.50
2023-02-13T07:56:06.295Z,2.70
2023-02-13T07:57:09.179Z,2.80
2023-02-13T07:58:13.360Z,2.80
2023-02-13T07:59:15.519Z,3.00
2023-02-13T08:00:19.312Z,3.00
2023-02-13T08:01:22.794Z,3.10
2023-02-13T08:02:25.670Z,3.10
2023-02-13T08:03:28.564Z,3.20
2023-02-13T08:04:31.574Z,3.30
2023-02-13T08:05:33.723Z,3.40
2023-02-13T08:06:36.564Z,3.40
2023-02-13T08:07:38.444Z,3.40
2023-02-13T08:08:41.340Z,3.40
2023-02-13T08:10:02.836Z,3.50
2023-02-13T08:11:24.215Z,3.50
2023-02-13T08:12:27.191Z,3.60
2023-02-13T08:13:31.411Z,3.60
2023-02-13T08:14:34.583Z,3.70
2023-02-13T08:15:36.527Z,3.80
2023-02-13T08:16:39.520Z,3.90
2023-02-13T08:17:42.684Z,4.00
2023-02-13T08:18:44.599Z,4.10
2023-02-13T08:19:47.440Z,4.10
2023-02-13T08:20:49.359Z,4.20
2023-02-13T08:21:52.292Z,4.30
2023-02-13T08:22:55.247Z,4.30
2023-02-13T08:23:57.407Z,4.40
2023-02-13T08:25:00.328Z,4.30
2023-02-13T08:26:03.495Z,4.40
2023-02-13T08:27:06.330Z,4.40
2023-02-13T08:28:09.435Z,4.50
2023-02-13T08:29:12.799Z,4.50
2023-02-13T08:30:16.044Z,4.60
2023-02-13T08:31:18.057Z,4.60
2023-02-13T08:32:21.102Z,4.70
2023-02-13T08:33:23.157Z,4.70
2023-02-13T08:34:26.012Z,4.90
2023-02-13T08:35:29.817Z,5.00
2023-02-13T08:36:32.830Z,5.20
2023-02-13T08:37:34.776Z,5.30
2023-02-13T08:38:37.632Z,5.50
2023-02-13T08:39:40.479Z,5.70
2023-02-13T08:40:42.331Z,6.00
2023-02-13T08:41:45.235Z,6.20
2023-02-13T08:42:47.112Z,6.30
2023-02-13T08:43:50.387Z,6.50
2023-02-13T08:44:54.620Z,6.60
2023-02-13T08:45:59.379Z,6.70
2023-02-13T08:47:03.895Z,6.90
2023-02-13T08:48:07.486Z,7.00
2023-02-13T08:49:10.422Z,7.00
2023-02-13T08:50:13.266Z,7.10
2023-02-13T08:51:16.165Z,7.10
2023-02-13T08:52:19.121Z,7.10
2023-02-13T08:53:21.147Z,7.30
2023-02-13T08:54:24.057Z,7.30
2023-02-13T08:55:27.436Z,7.30
2023-02-13T08:56:30.388Z,7.40
2023-02-13T08:57:32.523Z,7.50
2023-02-13T08:58:35.415Z,7.50
2023-02-13T08:59:38.325Z,7.60
2023-02-13T09:00:41.542Z,7.80
2023-02-13T09:01:44.427Z,7.90
2023-02-13T09:02:46.382Z,8.00
2023-02-13T09:03:49.404Z,8.10
2023-02-13T09:04:51.455Z,8.20
2023-02-13T09:05:54.331Z,8.20
2023-02-13T09:06:57.486Z,8.30
2023-02-13T09:08:00.962Z,8.40
2023-02-13T09:09:05.391Z,8.60
2023-02-13T09:10:09.010Z,8.70
2023-02-13T09:11:11.900Z,8.80
2023-02-13T09:12:13.790Z,8.80
2023-02-13T09:13:16.675Z,8.80
2023-02-13T09:14:19.598Z,8.80
2023-02-13T09:15:21.522Z,8.70
2023-02-13T09:16:25.769Z,8.70
2023-02-13T09:17:28.698Z,8.70
2023-02-13T09:18:31.594Z,8.70
2023-02-13T09:19:34.508Z,8.70
2023-02-13T09:20:36.446Z,8.80
2023-02-13T09:21:39.510Z,8.80
2023-02-13T09:22:41.745Z,8.70
2023-02-13T09:23:44.671Z,8.70
2023-02-13T09:24:46.581Z,8.80
2023-02-13T09:25:49.488Z,8.80
2023-02-13T09:26:51.467Z,8.80
2023-02-13T09:27:54.373Z,8.80
2023-02-13T09:28:57.262Z,8.80
2023-02-13T09:29:59.304Z,8.80
2023-02-13T09:31:06.308Z,8.90
2023-02-13T09:32:10.618Z,8.90
2023-02-13T09:33:13.615Z,9.00
2023-02-13T09:34:16.494Z,9.00
2023-02-13T09:35:19.486Z,9.10
2023-02-13T09:36:24.018Z,9.10
2023-02-13T09:37:27.111Z,9.10
2023-02-13T09:38:30.012Z,9.10
2023-02-13T09:39:31.877Z,9.10
2023-02-13T09:40:37.349Z,9.10
2023-02-13T09:41:41.716Z,9.10
2023-02-13T09:42:44.331Z,9.10
2023-02-13T09:43:49.284Z,8.90
2023-02-13T09:44:51.749Z,8.70
2023-02-13T09:45:57.280Z,8.50
2023-02-13T09:47:00.832Z,8.20
2023-02-13T09:48:05.775Z,8.10
2023-02-13T09:49:09.953Z,8.10
2023-02-13T09:50:13.949Z,7.90
2023-02-13T09:51:18.256Z,7.80
2023-02-13T09:52:20.312Z,7.90
2023-02-13T09:53:24.289Z,7.90
2023-02-13T09:54:28.992Z,8.00
2023-02-13T09:55:37.552Z,8.00
2023-02-13T09:56:41.844Z,8.10
2023-02-13T09:57:47.617Z,8.10
2023-02-13T09:58:55.828Z,8.10
2023-02-13T10:00:03.694Z,8.00
2023-02-13T10:01:18.615Z,7.90
2023-02-13T10:02:26.419Z,7.90
2023-02-13T10:03:32.633Z,7.90
2023-02-13T10:04:40.210Z,7.80
2023-02-13T10:05:47.925Z,7.90
2023-02-13T10:06:55.773Z,7.90
2023-02-13T10:08:02.228Z,7.90
2023-02-13T10:09:14.120Z,7.90
2023-02-13T10:10:22.601Z,7.90
2023-02-13T10:11:30.330Z,7.90
2023-02-13T10:12:51.186Z,8.10
2023-02-13T10:14:06.312Z,8.20
2023-02-13T10:15:16.258Z,8.10
2023-02-13T10:16:21.796Z,8.20
2023-02-13T10:17:26.856Z,8.30
2023-02-13T10:18:35.357Z,8.30
2023-02-13T10:19:40.956Z,8.30
2023-02-13T10:20:46.494Z,8.40
2023-02-13T10:21:52.813Z,8.40
2023-02-13T10:22:57.587Z,8.50
2023-02-13T10:24:03.607Z,8.60
2023-02-13T10:25:09.206Z,8.60
2023-02-13T10:26:12.730Z,8.60
2023-02-13T10:27:22.278Z,8.70
2023-02-13T10:28:30.907Z,8.70
2023-02-13T10:29:55.407Z,8.80
2023-02-13T10:31:02.084Z,8.90
2023-02-13T10:32:08.281Z,8.90
2023-02-13T10:33:19.636Z,8.90
2023-02-13T10:34:26.289Z,9.00
2023-02-13T10:35:31.387Z,9.00
2023-02-13T10:36:35.904Z,9.10
2023-02-13T10:37:39.165Z,9.20
2023-02-13T10:38:45.157Z,9.40
2023-02-13T10:39:49.537Z,9.50
2023-02-13T10:41:00.015Z,9.60
2023-02-13T10:42:05.587Z,9.70
2023-02-13T10:43:09.366Z,9.60
2023-02-13T10:44:23.300Z,9.60
2023-02-13T10:45:36.753Z,9.50
2023-02-13T10:46:44.538Z,9.60
2023-02-13T10:47:54.131Z,9.60
2023-02-13T10:49:17.753Z,9.50
2023-02-13T10:50:26.853Z,9.40
2023-02-13T10:51:35.348Z,9.30
2023-02-13T10:52:45.537Z,9.30
2023-02-13T10:53:52.309Z,9.40
2023-02-13T10:55:02.482Z,9.30
2023-02-13T10:56:18.333Z,9.20
2023-02-13T10:57:23.479Z,9.10
2023-02-13T10:58:31.661Z,9.10
2023-02-13T10:59:46.258Z,9.20
2023-02-13T11:00:54.888Z,9.30
2023-02-13T11:01:58.875Z,9.40
2023-02-13T11:03:02.190Z,9.50
2023-02-13T11:04:07.299Z,9.50
2023-02-13T11:05:15.475Z,9.50
2023-02-13T11:06:20.245Z,9.50
2023-02-13T11:07:25.129Z,9.50
2023-02-13T11:08:29.594Z,9.50
2023-02-13T11:09:35.033Z,9.60
2023-02-13T11:10:38.003Z,9.70
2023-02-13T11:11:41.883Z,9.90
2023-02-13T11:12:44.892Z,10.00
2023-02-13T11:13:47.026Z,10.20
2023-02-13T11:14:54.949Z,10.30
2023-02-13T11:15:59.338Z,10.50
2023-02-13T11:17:03.709Z,10.70
2023-02-13T11:18:14.416Z,10.90
2023-02-13T11:19:18.332Z,11.00
2023-02-13T11:20:27.128Z,11.20
2023-02-13T11:21:35.926Z,11.40
2023-02-13T11:22:39.299Z,11.60
2023-02-13T11:23:44.040Z,11.50
2023-02-13T11:24:54.118Z,11.60
2023-02-13T11:25:58.689Z,11.70
2023-02-13T11:27:04.623Z,11.60
2023-02-13T11:28:08.614Z,11.60
2023-02-13T11:29:17.643Z,11.50
2023-02-13T11:30:31.337Z,11.50
2023-02-13T11:31:35.154Z,11.20
2023-02-13T11:32:38.162Z,11.20
2023-02-13T11:33:40.310Z,11.10
2023-02-13T11:34:43.222Z,11.10
2023-02-13T11:35:46.764Z,11.10
2023-02-13T11:36:51.245Z,11.20
2023-02-13T11:38:11.813Z,11.30
2023-02-13T11:39:19.844Z,11.40
2023-02-13T11:40:30.246Z,11.60
2023-02-13T11:41:37.710Z,11.70
2023-02-13T11:42:43.493Z,11.90
2023-02-13T11:43:47.560Z,12.00
2023-02-13T11:44:52.756Z,12.10
2023-02-13T11:46:02.899Z,12.30
2023-02-13T11:47:05.905Z,12.40
2023-02-13T11:48:10.253Z,12.50
2023-02-13T11:49:18.091Z,12.50
2023-02-13T11:50:23.159Z,12.50
2023-02-13T11:51:39.613Z,12.50
2023-02-13T11:52:44.218Z,12.50
2023-02-13T11:53:47.168Z,12.50
2023-02-13T11:54:55.292Z,12.40
2023-02-13T11:56:09.398Z,12.30
2023-02-13T11:57:22.329Z,12.20
2023-02-13T11:58:26.304Z,12.10
2023-02-13T11:59:32.005Z,12.20
2023-02-13T12:00:39.919Z,12.20
2023-02-13T12:01:42.870Z,12.20
2023-02-13T12:02:48.157Z,12.30
2023-02-13T12:03:58.184Z,12.20
2023-02-13T12:05:16.782Z,12.30
2023-02-13T12:06:20.872Z,12.30
2023-02-13T12:07:25.883Z,12.40
2023-02-13T12:08:29.237Z,12.40
2023-02-13T12:09:33.054Z,12.40
2023-02-13T12:10:37.731Z,12.40
2023-02-13T12:11:43.432Z,12.30
2023-02-13T12:12:47.498Z,12.30
2023-02-13T12:13:50.230Z,12.30
2023-02-13T12:14:53.135Z,12.30
2023-02-13T12:16:00.313Z,12.30
2023-02-13T12:17:06.403Z,12.30
2023-02-13T12:18:13.080Z,12.30
2023-02-13T12:19:19.634Z,12.30
2023-02-13T12:20:22.511Z,12.30
2023-02-13T12:21:31.747Z,12.40
2023-02-13T12:22:41.512Z,12.40
2023-02-13T12:23:48.679Z,12.40
2023-02-13T12:24:57.493Z,12.50
2023-02-13T12:26:18.756Z,12.60
2023-02-13T12:27:25.986Z,12.60
2023-02-13T12:28:34.120Z,12.80
2023-02-13T12:29:54.888Z,12.80
2023-02-13T12:31:13.943Z,12.80
2023-02-13T12:32:19.404Z,12.90
2023-02-13T12:33:27.311Z,12.90
2023-02-13T12:34:48.009Z,13.00
2023-02-13T12:35:55.136Z,13.00
2023-02-13T12:37:03.697Z,13.10
2023-02-13T12:38:12.858Z,13.20
2023-02-13T12:39:23.914Z,13.30
2023-02-13T12:40:34.695Z,13.30
2023-02-13T12:41:40.232Z,13.40
2023-02-13T12:42:48.967Z,13.30
2023-02-13T12:44:06.769Z,13.30
2023-02-13T12:45:16.972Z,13.10
2023-02-13T12:46:22.945Z,13.00
2023-02-13T12:47:27.586Z,12.90
2023-02-13T12:48:35.776Z,12.80
2023-02-13T12:49:49.417Z,12.60
2023-02-13T12:50:57.734Z,12.50
2023-02-13T12:52:08.359Z,12.50
2023-02-13T12:53:19.806Z,12.60
2023-02-13T12:54:33.200Z,12.60
2023-02-13T12:55:45.684Z,12.70
2023-02-13T12:56:55.989Z,12.80
2023-02-13T12:58:07.043Z,12.90
2023-02-13T12:59:12.575Z,13.00
2023-02-13T13:00:24.894Z,13.20
2023-02-13T13:01:38.994Z,13.20
2023-02-13T13:02:48.105Z,13.30
2023-02-13T13:03:55.437Z,13.30
2023-02-13T13:05:05.069Z,13.10
2023-02-13T13:06:22.681Z,13.10
2023-02-13T13:07:33.259Z,13.00
2023-02-13T13:08:44.427Z,12.70
2023-02-13T13:10:02.185Z,12.50
2023-02-13T13:11:14.436Z,12.20
2023-02-13T13:12:22.351Z,12.10
2023-02-13T13:13:32.479Z,11.90
2023-02-13T13:14:37.800Z,11.80
2023-02-13T13:15:46.084Z,11.70
2023-02-13T13:16:53.111Z,11.60
2023-02-13T13:18:00.236Z,11.50
2023-02-13T13:19:06.777Z,11.50
2023-02-13T13:20:23.087Z,11.50
2023-02-13T13:21:31.249Z,11.60
2023-02-13T13:22:35.569Z,11.80
2023-02-13T13:23:41.067Z,11.90
2023-02-13T13:24:51.169Z,12.10
2023-02-13T13:25:58.181Z,12.20
2023-02-13T13:27:01.898Z,12.30
2023-02-13T13:28:09.045Z,12.30
2023-02-13T13:29:12.966Z,12.30
2023-02-13T13:30:19.133Z,12.30
2023-02-13T13:31:24.252Z,12.40
2023-02-13T13:32:27.551Z,12.50
2023-02-13T13:33:30.949Z,12.50
2023-02-13T13:34:35.228Z,12.60
2023-02-13T13:35:39.906Z,12.70
2023-02-13T13:36:46.012Z,12.80
2023-02-13T13:38:02.469Z,12.90
2023-02-13T13:39:08.020Z,12.80
2023-02-13T13:40:22.978Z,12.80
2023-02-13T13:41:32.099Z,12.60
2023-02-13T13:42:40.279Z,12.50
2023-02-13T13:43:51.013Z,12.40
2023-02-13T13:45:08.832Z,12.30
2023-02-13T13:46:14.248Z,12.20
2023-02-13T13:47:21.711Z,12.20
2023-02-13T13:48:39.866Z,12.20
2023-02-13T13:49:47.534Z,12.20
2023-02-13T13:50:50.607Z,12.10
2023-02-13T13:51:53.510Z,12.10
2023-02-13T13:53:07.130Z,12.10
2023-02-13T13:54:34.479Z,12.20
2023-02-13T13:55:56.485Z,12.20
2023-02-13T13:57:08.076Z,12.10
2023-02-13T13:58:21.641Z,12.00
2023-02-13T13:59:39.667Z,11.90
2023-02-13T14:00:42.598Z,11.90
2023-02-13T14:01:45.507Z,11.80
2023-02-13T14:02:48.794Z,11.80
2023-02-13T14:03:52.606Z,11.80
2023-02-13T14:05:02.690Z,11.90
2023-02-13T14:06:07.250Z,11.90
2023-02-13T14:07:17.709Z,12.00
2023-02-13T14:08:35.485Z,12.10
2023-02-13T14:09:39.393Z,12.10
2023-02-13T14:11:09.467Z,12.00
2023-02-13T14:12:39.098Z,12.00
2023-02-13T14:13:41.031Z,11.90
2023-02-13T14:14:46.726Z,11.70
2023-02-13T14:15:50.959Z,11.60
2023-02-13T14:16:54.489Z,11.40
2023-02-13T14:17:56.667Z,11.40
2023-02-13T14:18:59.561Z,11.30
2023-02-13T14:20:01.539Z,11.20
2023-02-13T14:21:04.711Z,11.20
2023-02-13T14:22:27.946Z,11.10
2023-02-13T14:23:33.498Z,11.20
2023-02-13T14:24:36.379Z,11.20
2023-02-13T14:25:38.489Z,11.20
2023-02-13T14:26:41.901Z,11.20
2023-02-13T14:27:55.865Z,11.20
2023-02-13T14:29:23.071Z,11.20
2023-02-13T14:30:28.948Z,11.20